Time;durP1;ratioP1;P1;durP2;ratioP2;P2;SDS_P1;SDS_P2;PMS_P1;PMS_P2;Temp;Humidity;BMP_temperature;BMP_pressure;BME280_temperature;BME280_humidity;BME280_pressure;Samples;Min_cycle;Max_cycle;Signal;HPM_P1;HPM_P2
2021/04/10 00:04:39;;;;;;;23.38;5.57;;;;;;;5.14;78.94;101248.19;10205921;28;20053;-67
2021/04/10 00:09:36;;;;;;;20.83;5.72;;;;;;;5.03;78.47;101250.03;10207199;28;20423;-66
2021/04/10 00:14:31;;;;;;;15.88;4.05;;;;;;;5.13;78.18;101235.72;10206726;28;20049;-66
2021/04/10 00:19:27;;;;;;;17.55;4.95;;;;;;;5.07;78.21;101237.59;10214461;28;20506;-67
2021/04/10 00:24:24;;;;;;;22.42;5.72;;;;;;;5.14;78.03;101242.75;10210915;28;20584;-67
2021/04/10 00:29:19;;;;;;;18.58;4.30;;;;;;;5.14;78.29;101245.47;10214216;28;20041;-68
2021/04/10 00:34:15;;;;;;;18.98;5.00;;;;;;;5.14;78.58;101247.38;10210864;28;20045;-69
2021/04/10 00:39:11;;;;;;;16.77;5.00;;;;;;;5.09;79.07;101245.47;10209017;28;20119;-67
2021/04/10 00:44:07;;;;;;;17.48;5.72;;;;;;;4.95;80.10;101244.34;10203140;28;20056;-68
2021/04/10 00:49:03;;;;;;;19.85;5.45;;;;;;;5.14;79.63;101242.75;10202648;28;20045;-68
2021/04/10 00:53:59;;;;;;;17.75;6.28;;;;;;;5.06;80.16;101251.44;10216545;28;20057;-67
2021/04/10 00:58:55;;;;;;;17.55;6.28;;;;;;;5.17;78.42;101247.63;10209327;28;20047;-66
2021/04/10 01:03:51;;;;;;;17.75;6.30;;;;;;;5.11;79.07;101242.50;10210816;28;20108;-66
2021/04/10 01:08:47;;;;;;;17.13;5.63;;;;;;;5.14;79.48;101245.47;10209296;28;20131;-67
2021/04/10 01:13:55;;;;;;;19.88;6.00;;;;;;;5.01;80.29;101243.25;10213937;28;20064;-68
2021/04/10 01:19:11;;;;;;;17.70;6.00;;;;;;;5.13;79.23;101230.31;10214274;28;20041;-68
2021/04/10 01:24:25;;;;;;;16.27;5.75;;;;;;;5.13;80.24;101234.88;10218809;28;20045;-66
2021/04/10 01:29:24;;;;;;;19.13;5.57;;;;;;;5.19;79.37;101237.34;10208776;28;20045;-67
2021/04/10 01:34:29;;;;;;;17.70;5.68;;;;;;;5.15;79.77;101241.69;10204268;28;20041;-68
2021/04/10 01:39:26;;;;;;;17.40;5.65;;;;;;;5.25;78.98;101239.00;10208816;28;20127;-68
2021/04/10 01:44:22;;;;;;;20.85;6.90;;;;;;;5.22;76.64;101250.38;10208063;28;20049;-67
2021/04/10 01:49:18;;;;;;;15.88;5.47;;;;;;;5.15;77.33;101249.81;10208703;28;20152;-68
2021/04/10 01:54:15;;;;;;;12.70;4.60;;;;;;;5.14;77.85;101248.19;10211177;28;20439;-67
2021/04/10 01:59:16;;;;;;;17.77;4.85;;;;;;;5.19;77.78;101255.50;10205298;28;20972;-67
2021/04/10 02:04:13;;;;;;;13.18;5.00;;;;;;;5.18;78.20;101257.41;10203616;28;20056;-67
2021/04/10 02:09:11;;;;;;;16.80;5.90;;;;;;;5.07;77.66;101272.03;10198421;28;20048;-68
2021/04/10 02:14:11;;;;;;;15.32;5.72;;;;;;;5.21;78.02;101262.28;10212310;28;20099;-68
2021/04/10 02:19:08;;;;;;;16.50;5.53;;;;;;;5.29;77.00;101266.34;10203372;28;20048;-68
2021/04/10 02:24:04;;;;;;;19.17;5.85;;;;;;;5.28;77.13;101259.31;10216487;28;20111;-68
2021/04/10 02:29:01;;;;;;;14.38;5.38;;;;;;;5.24;77.83;101255.50;10207019;28;20095;-67
2021/04/10 02:34:09;;;;;;;14.20;5.07;;;;;;;5.24;77.89;101259.06;10203237;28;20073;-67
2021/04/10 02:39:07;;;;;;;17.13;4.82;;;;;;;5.26;77.69;101262.28;10207117;28;20123;-67
2021/04/10 02:44:08;;;;;;;19.45;8.20;;;;;;;5.16;77.49;101275.84;10198361;28;20049;-67
2021/04/10 02:49:12;;;;;;;22.80;5.68;;;;;;;5.00;78.56;101272.28;10206401;28;20077;-68
2021/04/10 02:54:11;;;;;;;20.38;7.13;;;;;;;5.10;78.54;101266.06;10204547;28;20100;-68
2021/04/10 02:59:09;;;;;;;22.10;7.38;;;;;;;5.05;78.50;101276.88;10208176;28;20083;-66
2021/04/10 03:04:06;;;;;;;21.10;6.65;;;;;;;5.09;78.37;101282.59;10209916;28;20134;-67
2021/04/10 03:09:03;;;;;;;18.73;5.35;;;;;;;4.91;77.71;101286.59;10213503;28;20099;-66
2021/04/10 03:13:59;;;;;;;19.50;5.65;;;;;;;4.91;77.72;101300.16;10201799;28;20088;-67
2021/04/10 03:18:56;;;;;;;12.70;4.82;;;;;;;4.81;78.31;101298.22;10201645;28;20069;-67
2021/04/10 03:23:52;;;;;;;20.15;4.93;;;;;;;4.79;77.50;101289.53;10210172;28;20041;-68
2021/04/10 03:28:50;;;;;;;23.73;5.32;;;;;;;4.72;77.40;101289.78;10208544;28;20087;-66
2021/04/10 03:33:47;;;;;;;19.20;4.70;;;;;;;4.64;76.81;101292.97;10202362;28;20041;-67
2021/04/10 03:38:43;;;;;;;17.52;4.22;;;;;;;4.57;76.73;101298.66;10199057;28;20069;-68
2021/04/10 03:43:39;;;;;;;15.98;4.22;;;;;;;4.76;76.20;101311.75;10201310;28;20108;-64
2021/04/10 03:48:35;;;;;;;18.77;3.53;;;;;;;4.64;74.91;101315.50;10197577;28;20592;-64
2021/04/10 03:53:31;;;;;;;15.60;3.22;;;;;;;4.58;75.29;101321.16;10206514;28;20060;-66
2021/04/10 03:58:27;;;;;;;12.43;3.47;;;;;;;4.77;75.24;101314.19;10200933;28;20092;-66
2021/04/10 04:03:23;;;;;;;14.55;3.30;;;;;;;4.76;74.20;101323.41;10199863;28;20064;-67
2021/04/10 04:08:19;;;;;;;14.18;3.60;;;;;;;4.63;74.06;101326.59;10198757;28;20045;-68
2021/04/10 04:13:15;;;;;;;12.68;3.05;;;;;;;4.75;74.58;101338.00;10208128;28;20045;-67
2021/04/10 04:18:11;;;;;;;11.45;2.75;;;;;;;4.84;74.39;101341.84;10187808;28;20048;-67
2021/04/10 04:23:07;;;;;;;11.50;1.73;;;;;;;4.81;72.29;101347.81;10217869;28;20810;-67
2021/04/10 04:28:03;;;;;;;12.40;2.35;;;;;;;4.72;72.43;101346.69;10238130;28;20422;-66
2021/04/10 04:32:59;;;;;;;9.70;2.38;;;;;;;4.76;72.57;101349.69;10220947;28;20045;-67
2021/04/10 04:37:55;;;;;;;9.25;1.88;;;;;;;4.78;72.42;101356.47;10213137;28;20045;-67
2021/04/10 04:42:51;;;;;;;12.15;2.15;;;;;;;4.79;71.79;101349.97;10231983;28;20052;-68
2021/04/10 04:47:47;;;;;;;11.35;1.73;;;;;;;4.73;71.35;101361.03;10247988;28;20465;-67
2021/04/10 04:52:43;;;;;;;7.78;1.67;;;;;;;4.69;72.40;101366.16;10252839;28;20582;-65
2021/04/10 04:57:39;;;;;;;14.20;2.20;;;;;;;4.60;71.74;101375.88;10243936;28;20148;-68
2021/04/10 05:02:35;;;;;;;12.55;1.95;;;;;;;4.79;71.85;101381.66;10260755;28;20143;-67
2021/04/10 05:07:31;;;;;;;7.90;1.98;;;;;;;4.81;71.95;101385.75;10260702;28;20048;-67
2021/04/10 05:12:27;;;;;;;13.63;2.20;;;;;;;4.76;71.35;101388.44;10270594;28;20526;-68
2021/04/10 05:17:24;;;;;;;16.38;2.60;;;;;;;4.73;69.91;101393.53;10268975;28;20041;-65
2021/04/10 05:22:20;;;;;;;10.82;2.08;;;;;;;4.69;71.07;101390.56;10240978;28;20046;-68
2021/04/10 05:27:16;;;;;;;8.93;2.05;;;;;;;4.74;70.48;101406.84;10242968;28;20434;-67
2021/04/10 05:32:12;;;;;;;9.15;1.60;;;;;;;4.74;69.36;101408.72;10239124;28;20045;-68
2021/04/10 05:37:08;;;;;;;9.60;1.90;;;;;;;4.71;69.65;101417.34;10197074;28;20136;-68
2021/04/10 05:42:04;;;;;;;17.08;2.45;;;;;;;4.74;68.90;101425.78;10201079;28;20815;-67
2021/04/10 05:47:00;;;;;;;12.50;2.30;;;;;;;4.70;68.70;101438.22;10217764;28;20076;-68
2021/04/10 05:51:56;;;;;;;16.13;2.30;;;;;;;4.67;69.20;101441.47;10240557;28;20041;-68
2021/04/10 05:56:52;;;;;;;12.95;2.28;;;;;;;4.74;69.01;101444.75;10237830;28;20461;-69
2021/04/10 06:01:48;;;;;;;7.45;1.75;;;;;;;4.59;68.96;101452.75;10230988;28;20045;-69
2021/04/10 06:06:44;;;;;;;11.35;1.98;;;;;;;4.78;68.23;101456.72;10231397;28;20060;-67
2021/04/10 06:11:42;;;;;;;13.20;2.17;;;;;;;4.66;68.51;101466.09;10217673;28;20045;-70
2021/04/10 06:16:40;;;;;;;12.68;2.22;;;;;;;4.83;68.06;101470.28;10210777;28;20061;-68
2021/04/10 06:21:36;;;;;;;12.90;2.72;;;;;;;4.74;67.04;101476.47;10226888;28;20569;-67
2021/04/10 06:26:32;;;;;;;12.68;1.67;;;;;;;4.88;67.10;101482.25;10250635;28;20159;-66
2021/04/10 06:31:28;;;;;;;18.02;2.22;;;;;;;4.83;64.90;101491.97;10249133;28;20048;-68
2021/04/10 06:36:25;;;;;;;11.77;1.77;;;;;;;4.97;66.32;101496.94;10250822;28;20599;-68
2021/04/10 06:41:22;;;;;;;12.32;1.63;;;;;;;5.05;64.98;101491.00;10246918;28;20105;-69
2021/04/10 06:46:19;;;;;;;9.05;2.00;;;;;;;5.10;64.33;101501.88;10234704;28;20069;-67
2021/04/10 06:51:15;;;;;;;12.23;1.92;;;;;;;5.13;62.62;101503.25;10217161;28;20075;-68
2021/04/10 06:56:17;;;;;;;15.32;1.98;;;;;;;5.26;62.37;101510.94;10234120;28;20120;-68
2021/04/10 07:01:13;;;;;;;10.77;1.27;;;;;;;5.39;61.10;101506.94;10204326;28;20088;-69
2021/04/10 07:06:10;;;;;;;9.25;1.55;;;;;;;5.50;61.41;101516.78;10202819;28;20104;-70
2021/04/10 07:11:07;;;;;;;9.93;1.50;;;;;;;5.55;59.54;101522.22;10204544;28;20064;-68
2021/04/10 07:16:03;;;;;;;10.80;1.67;;;;;;;5.60;59.79;101524.94;10205276;28;20604;-66
2021/04/10 07:21:23;;;;;;;12.18;1.40;;;;;;;5.74;59.19;101524.47;10201011;28;20049;-68
2021/04/10 07:26:21;;;;;;;9.02;1.40;;;;;;;5.87;59.40;101526.66;10203535;28;20037;-69
2021/04/10 07:31:18;;;;;;;8.57;1.33;;;;;;;6.03;60.05;101531.09;10195790;28;20053;-68
2021/04/10 07:36:14;;;;;;;12.52;1.75;;;;;;;6.12;58.93;101534.09;10194816;28;20046;-69
2021/04/10 07:41:13;;;;;;;9.57;1.75;;;;;;;6.20;56.19;101540.94;10209307;28;20053;-69
2021/04/10 07:46:10;;;;;;;13.15;1.60;;;;;;;5.87;53.29;101543.78;10202569;28;20492;-67
2021/04/10 07:51:15;;;;;;;7.03;1.40;;;;;;;6.13;54.83;101556.63;10205339;28;20054;-68
2021/04/10 07:56:11;;;;;;;14.65;1.48;;;;;;;6.06;54.84;101563.16;10202945;28;20426;-68
2021/04/10 08:01:09;;;;;;;12.35;2.67;;;;;;;6.40;53.94;101549.09;10196766;28;20038;-68
2021/04/10 08:06:06;;;;;;;9.07;1.38;;;;;;;6.36;53.45;101555.34;10207151;28;20057;-64
2021/04/10 08:11:03;;;;;;;10.30;1.58;;;;;;;6.33;52.42;101556.69;10203769;28;20140;-65
2021/04/10 08:16:17;;;;;;;9.02;1.40;;;;;;;6.38;54.12;101564.03;10205995;28;20514;-66
2021/04/10 08:21:14;;;;;;;19.43;2.17;;;;;;;6.23;52.06;101578.41;10208286;28;20142;-67
2021/04/10 08:26:15;;;;;;;11.90;1.65;;;;;;;6.30;51.69;101576.25;10205676;28;20415;-67
2021/04/10 08:31:11;;;;;;;12.45;1.27;;;;;;;6.51;52.37;101572.47;10203647;28;20047;-69
2021/04/10 08:36:09;;;;;;;9.05;1.98;;;;;;;6.78;51.45;101579.59;10204845;28;20049;-68
2021/04/10 08:41:07;;;;;;;9.57;2.25;;;;;;;6.86;51.47;101581.75;10215978;28;20075;-67
2021/04/10 08:46:06;;;;;;;12.27;1.38;;;;;;;7.10;50.31;101587.47;10206428;28;20049;-67
2021/04/10 08:51:07;;;;;;;13.95;1.50;;;;;;;7.25;49.67;101597.50;10204146;28;20136;-69
2021/04/10 08:56:08;;;;;;;9.95;1.35;;;;;;;7.44;49.18;101602.38;10209299;28;20128;-70
2021/04/10 09:01:07;;;;;;;10.95;1.35;;;;;;;7.54;47.80;101602.34;10215281;28;20050;-69
2021/04/10 09:06:04;;;;;;;10.65;2.05;;;;;;;7.63;47.80;101602.59;10212483;28;20053;-65
2021/04/10 09:11:03;;;;;;;9.57;1.20;;;;;;;7.77;50.11;101611.81;10211006;28;20128;-67
2021/04/10 09:16:37;;;;;;;13.77;1.90;;;;;;;7.67;47.83;101612.66;10211353;28;20057;-70
2021/04/10 09:21:35;;;;;;;12.52;2.03;;;;;;;7.84;48.99;101616.97;10207700;28;20041;-69
2021/04/10 09:26:32;;;;;;;9.32;1.05;;;;;;;8.35;52.75;101630.38;10208570;28;20053;-66
2021/04/10 09:31:49;;;;;;;7.18;1.48;;;;;;;8.49;47.41;101634.16;10213393;28;20100;-68
2021/04/10 09:36:46;;;;;;;9.23;1.60;;;;;;;8.47;44.50;101641.81;10209062;28;20400;-68
2021/04/10 09:41:50;;;;;;;7.60;1.55;;;;;;;8.49;45.35;101638.78;10211849;28;20565;-69
2021/04/10 09:46:54;;;;;;;11.30;2.95;;;;;;;8.71;44.10;101635.66;10206982;28;20056;-69
2021/04/10 09:51:55;;;;;;;4.88;1.20;;;;;;;8.81;42.40;101649.22;10201821;28;20049;-69
2021/04/10 09:56:51;;;;;;;6.88;1.15;;;;;;;8.66;40.38;101652.03;10210531;28;20049;-67
2021/04/10 10:01:47;;;;;;;6.50;1.00;;;;;;;8.92;40.81;101648.06;10201288;28;20052;-68
2021/04/10 10:06:47;;;;;;;10.35;1.70;;;;;;;9.31;42.66;101647.22;10205032;28;20048;-69
2021/04/10 10:11:59;;;;;;;7.55;1.35;;;;;;;8.93;40.72;101655.13;10209961;28;20144;-66
2021/04/10 10:17:07;;;;;;;8.45;1.48;;;;;;;9.12;41.16;101651.72;10227646;28;20442;-67
2021/04/10 10:22:03;;;;;;;6.60;1.23;;;;;;;9.75;41.89;101643.50;10241930;28;20045;-66
2021/04/10 10:27:00;;;;;;;9.70;1.52;;;;;;;10.18;39.91;101646.28;10234861;28;20049;-67
2021/04/10 10:31:56;;;;;;;9.75;1.33;;;;;;;10.80;40.79;101642.75;10237113;28;20431;-65
2021/04/10 10:36:54;;;;;;;6.65;1.33;;;;;;;10.93;37.09;101639.25;10238957;28;20037;-67
2021/04/10 10:41:50;;;;;;;9.73;1.60;;;;;;;11.73;39.15;101629.91;10241059;28;20053;-67
2021/04/10 10:46:56;;;;;;;8.13;1.40;;;;;;;12.13;37.88;101640.41;10241061;28;20487;-68
2021/04/10 10:51:52;;;;;;;10.32;2.53;;;;;;;12.29;41.47;101638.97;10215641;28;20049;-65
2021/04/10 10:56:48;;;;;;;5.78;1.30;;;;;;;12.40;32.62;101632.16;10217578;28;20103;-68
2021/04/10 11:01:44;;;;;;;10.43;1.60;;;;;;;13.06;38.83;101631.72;10216913;28;20049;-67
2021/04/10 11:06:43;;;;;;;7.53;1.10;;;;;;;12.54;34.43;101625.81;10226739;28;20188;-66
2021/04/10 11:11:45;;;;;;;9.48;1.33;;;;;;;11.74;33.90;101630.72;10235507;28;20056;-68
2021/04/10 11:16:46;;;;;;;9.35;2.08;;;;;;;11.27;31.65;101619.78;10203858;28;20088;-69
2021/04/10 11:21:48;;;;;;;8.80;1.30;;;;;;;12.20;33.19;101621.63;10218397;28;20056;-69
2021/04/10 11:26:51;;;;;;;7.57;2.00;;;;;;;12.81;31.05;101609.28;10218300;28;20377;-67
2021/04/10 11:32:05;;;;;;;8.20;1.58;;;;;;;13.43;32.27;101618.72;10216416;28;20056;-67
2021/04/10 11:37:04;;;;;;;4.53;1.25;;;;;;;14.13;28.92;101619.00;10209316;28;20099;-69
2021/04/10 11:42:00;;;;;;;7.57;1.35;;;;;;;14.69;31.48;101614.56;10236879;28;20045;-69
2021/04/10 11:47:00;;;;;;;6.50;1.13;;;;;;;15.05;28.45;101605.16;10246497;28;20418;-69
2021/04/10 11:52:07;;;;;;;4.78;1.08;;;;;;;14.93;27.37;101612.13;10250091;28;20490;-69
2021/04/10 11:57:05;;;;;;;6.13;1.27;;;;;;;16.04;26.98;101607.75;10256299;28;20037;-65
2021/04/10 12:02:03;;;;;;;8.95;1.65;;;;;;;16.88;25.41;101596.75;10241489;28;20076;-68
2021/04/10 12:07:11;;;;;;;7.80;1.95;;;;;;;15.37;25.90;101609.31;10247503;28;20128;-69
2021/04/10 12:12:09;;;;;;;6.35;1.20;;;;;;;15.50;24.77;101600.03;10251878;28;20519;-68
2021/04/10 12:17:06;;;;;;;4.43;1.00;;;;;;;15.83;24.27;101606.88;10257576;28;20106;-68
2021/04/10 12:22:02;;;;;;;6.55;1.40;;;;;;;16.08;23.77;101608.72;10254881;28;20044;-68
2021/04/10 12:26:58;;;;;;;7.93;1.90;;;;;;;16.41;26.50;101599.72;10244230;28;20128;-66
2021/04/10 12:31:54;;;;;;;4.65;1.50;;;;;;;17.42;26.52;101593.88;10258950;28;20411;-68
2021/04/10 12:36:50;;;;;;;8.93;2.13;;;;;;;18.21;26.17;101590.91;10246603;28;20083;-68
2021/04/10 12:41:46;;;;;;;7.95;1.63;;;;;;;17.29;24.49;101589.50;10250910;28;20160;-66
2021/04/10 12:46:42;;;;;;;7.00;1.48;;;;;;;17.02;24.97;101580.69;10238820;28;20554;-69
2021/04/10 12:51:38;;;;;;;7.45;1.50;;;;;;;16.59;22.95;101573.59;10236938;28;20411;-69
2021/04/10 12:56:34;;;;;;;5.32;1.35;;;;;;;16.61;24.03;101556.66;10248510;28;20099;-64
2021/04/10 13:01:30;;;;;;;5.47;1.52;;;;;;;15.92;25.11;101550.56;10236375;28;20474;-69
2021/04/10 13:06:27;;;;;;;8.68;1.52;;;;;;;15.83;26.45;101551.72;10234051;28;20049;-69
2021/04/10 13:11:23;;;;;;;5.25;1.13;;;;;;;16.68;28.73;101556.13;10254043;28;20523;-68
2021/04/10 13:16:19;;;;;;;7.28;1.42;;;;;;;16.82;24.97;101559.44;10251752;28;20050;-69
2021/04/10 13:21:15;;;;;;;4.88;1.27;;;;;;;17.27;25.32;101555.06;10248659;28;20094;-67
2021/04/10 13:26:11;;;;;;;6.55;1.55;;;;;;;16.83;24.07;101544.50;10254850;28;20047;-66
2021/04/10 13:31:07;;;;;;;5.22;1.17;;;;;;;16.70;23.13;101545.56;10255425;28;20073;-63
2021/04/10 13:36:03;;;;;;;9.25;1.60;;;;;;;16.83;22.85;101545.28;10257457;28;20143;-69
2021/04/10 13:41:01;;;;;;;6.68;1.33;;;;;;;17.37;25.81;101536.06;10245181;28;20049;-63
2021/04/10 13:45:57;;;;;;;4.60;1.30;;;;;;;17.24;24.73;101537.19;10248061;28;20088;-69
2021/04/10 13:50:53;;;;;;;7.07;1.88;;;;;;;17.50;25.19;101547.13;10240403;28;20535;-69
2021/04/10 13:55:49;;;;;;;5.93;1.40;;;;;;;17.81;24.29;101539.09;10243557;28;20045;-69
2021/04/10 14:00:45;;;;;;;5.82;1.45;;;;;;;17.68;23.66;101534.69;10265007;28;20048;-69
2021/04/10 14:05:41;;;;;;;8.40;1.63;;;;;;;16.81;22.77;101530.22;10254266;28;20045;-68
2021/04/10 14:10:37;;;;;;;8.38;2.45;;;;;;;16.29;23.54;101522.34;10246917;28;20514;-66
2021/04/10 14:15:36;;;;;;;9.02;1.60;;;;;;;15.40;24.94;101522.41;10246107;28;20103;-65
2021/04/10 14:20:35;;;;;;;8.25;1.38;;;;;;;15.50;25.41;101511.00;10238288;28;20131;-66
2021/04/10 14:25:34;;;;;;;7.00;1.55;;;;;;;15.21;25.60;101503.53;10248193;28;20045;-67
2021/04/10 14:30:33;;;;;;;6.78;1.60;;;;;;;15.13;25.18;101497.72;10243245;28;20503;-65
2021/04/10 14:35:33;;;;;;;5.22;1.45;;;;;;;15.28;24.46;101492.81;10249845;28;20044;-64
2021/04/10 14:40:29;;;;;;;7.20;1.50;;;;;;;14.75;25.68;101496.84;10249219;28;20051;-66
2021/04/10 14:45:26;;;;;;;8.13;1.73;;;;;;;14.56;26.62;101494.47;10264154;28;20111;-67
2021/04/10 14:50:22;;;;;;;8.30;1.27;;;;;;;14.65;26.32;101492.50;10251533;28;20133;-68
2021/04/10 14:55:23;;;;;;;9.30;2.20;;;;;;;14.45;28.13;101489.25;10245220;28;20052;-69
2021/04/10 15:00:20;;;;;;;6.82;1.50;;;;;;;14.56;27.45;101472.47;10261875;28;20084;-66
2021/04/10 15:05:20;;;;;;;4.80;1.33;;;;;;;14.68;28.22;101470.63;10264891;28;20507;-69
2021/04/10 15:10:19;;;;;;;5.68;1.30;;;;;;;14.72;29.03;101477.09;10267444;28;20053;-67
2021/04/10 15:15:18;;;;;;;6.00;1.33;;;;;;;14.42;29.46;101484.41;10258434;28;20134;-67
2021/04/10 15:20:15;;;;;;;7.78;1.27;;;;;;;14.23;28.95;101472.94;10271918;28;20045;-69
2021/04/10 15:25:12;;;;;;;4.90;1.48;;;;;;;13.24;29.95;101474.19;10207310;28;20487;-67
2021/04/10 15:30:08;;;;;;;7.30;1.42;;;;;;;13.66;30.59;101468.34;10216693;28;20054;-68
2021/04/10 15:35:07;;;;;;;5.10;1.33;;;;;;;13.47;30.35;101471.38;10265424;28;20136;-67
2021/04/10 15:40:03;;;;;;;5.90;1.65;;;;;;;13.07;31.14;101474.13;10264883;28;20075;-68
2021/04/10 15:44:59;;;;;;;6.25;1.48;;;;;;;12.25;31.47;101472.63;10261099;28;20068;-66
2021/04/10 15:49:55;;;;;;;6.75;1.70;;;;;;;12.64;31.95;101471.94;10253718;28;20426;-67
2021/04/10 15:54:51;;;;;;;6.03;1.50;;;;;;;12.71;32.38;101461.34;10246027;28;20049;-67
2021/04/10 15:59:48;;;;;;;7.18;2.55;;;;;;;12.64;32.37;101461.78;10240437;28;20540;-65
2021/04/10 16:04:48;;;;;;;7.50;1.95;;;;;;;12.43;32.30;101453.25;10215899;28;20080;-63
2021/04/10 16:09:45;;;;;;;6.25;1.48;;;;;;;12.42;32.54;101454.38;10227795;28;20049;-67
2021/04/10 16:14:41;;;;;;;7.40;1.83;;;;;;;12.49;33.84;101453.16;10231141;28;20053;-63
2021/04/10 16:19:38;;;;;;;5.57;1.10;;;;;;;12.38;33.91;101450.63;10225012;28;20045;-67
2021/04/10 16:24:34;;;;;;;5.30;1.27;;;;;;;12.41;33.69;101447.25;10214753;28;20115;-68
2021/04/10 16:29:30;;;;;;;6.57;1.33;;;;;;;11.99;33.32;101446.63;10216509;28;20037;-67
2021/04/10 16:34:27;;;;;;;8.05;1.40;;;;;;;12.08;35.24;101432.19;10234306;28;20129;-69
2021/04/10 16:39:23;;;;;;;8.73;1.70;;;;;;;12.14;34.17;101436.44;10221488;28;20141;-67
2021/04/10 16:44:19;;;;;;;7.63;1.77;;;;;;;11.65;34.44;101430.69;10218491;28;20049;-68
2021/04/10 16:49:15;;;;;;;11.98;2.25;;;;;;;11.56;34.47;101427.84;10248750;28;20279;-65
2021/04/10 16:54:11;;;;;;;7.13;1.85;;;;;;;11.38;37.29;101434.25;10252317;28;20125;-67
2021/04/10 16:59:07;;;;;;;6.82;1.60;;;;;;;11.12;38.10;101428.50;10256962;28;20589;-69
2021/04/10 17:04:03;;;;;;;7.85;1.38;;;;;;;11.20;38.41;101437.91;10245336;28;20092;-68
2021/04/10 17:08:59;;;;;;;10.18;1.85;;;;;;;11.40;38.77;101429.28;10249998;28;20041;-68
2021/04/10 17:13:55;;;;;;;5.85;1.60;;;;;;;11.06;37.58;101427.75;10250554;28;20049;-68
2021/04/10 17:18:51;;;;;;;8.25;1.95;;;;;;;11.15;38.24;101428.69;10245469;28;20100;-64
2021/04/10 17:23:47;;;;;;;12.20;1.73;;;;;;;11.09;39.45;101423.59;10258226;28;20055;-67
2021/04/10 17:28:43;;;;;;;8.52;1.88;;;;;;;10.91;40.21;101422.59;10256350;28;20553;-68
2021/04/10 17:33:40;;;;;;;9.88;2.22;;;;;;;10.89;39.01;101430.31;10246197;28;22101;-64
2021/04/10 17:38:36;;;;;;;8.30;1.77;;;;;;;10.91;40.13;101428.88;10247543;28;20076;-68
2021/04/10 17:43:32;;;;;;;7.50;1.63;;;;;;;10.58;39.85;101425.38;10215000;28;20068;-66
2021/04/10 17:48:28;;;;;;;7.22;1.65;;;;;;;10.29;40.58;101422.88;10234874;28;20048;-66
2021/04/10 17:53:31;;;;;;;7.93;1.83;;;;;;;10.15;42.45;101428.25;10249915;28;20075;-69
2021/04/10 17:58:27;;;;;;;9.55;1.80;;;;;;;9.78;43.22;101416.25;10247079;28;20037;-65
2021/04/10 18:03:24;;;;;;;3.30;1.40;;;;;;;9.89;42.35;101419.63;10215059;28;20049;-66
2021/04/10 18:08:21;;;;;;;7.68;1.55;;;;;;;10.12;41.72;101417.94;10203165;28;20084;-67
2021/04/10 18:13:19;;;;;;;8.25;1.92;;;;;;;10.23;43.02;101413.91;10208053;28;20107;-67
2021/04/10 18:18:16;;;;;;;11.52;2.08;;;;;;;10.14;44.29;101420.34;10239985;28;20124;-66
2021/04/10 18:23:35;;;;;;;7.63;2.00;;;;;;;9.80;43.86;101411.28;10251554;28;20048;-67
2021/04/10 18:28:33;;;;;;;9.82;2.45;;;;;;;9.88;44.73;101413.34;10242892;28;20098;-67
2021/04/10 18:33:35;;;;;;;12.48;2.25;;;;;;;9.74;45.55;101412.47;10243532;28;20060;-67
2021/04/10 18:38:31;;;;;;;7.50;1.67;;;;;;;9.96;45.09;101414.63;10230930;28;20099;-67
2021/04/10 18:43:31;;;;;;;6.97;1.52;;;;;;;9.60;44.17;101406.13;10234525;28;20363;-66
2021/04/10 18:48:27;;;;;;;11.23;2.30;;;;;;;9.76;44.94;101393.88;10229309;28;20037;-66
2021/04/10 18:53:24;;;;;;;8.80;2.00;;;;;;;9.67;44.12;101407.38;10242600;28;20045;-66
2021/04/10 18:58:21;;;;;;;8.10;1.88;;;;;;;9.48;43.84;101410.09;10244514;28;20072;-67
2021/04/10 19:03:20;;;;;;;10.45;1.85;;;;;;;9.68;45.03;101402.75;10243570;28;20146;-67
2021/04/10 19:08:17;;;;;;;12.07;3.22;;;;;;;9.51;45.38;101413.34;10240114;28;20033;-67
2021/04/10 19:13:16;;;;;;;9.60;2.03;;;;;;;9.19;47.70;101407.47;10227277;28;20041;-66
2021/04/10 19:18:12;;;;;;;7.85;1.73;;;;;;;9.12;50.89;101398.00;10230685;28;20138;-67
2021/04/10 19:23:09;;;;;;;6.75;1.50;;;;;;;9.34;48.28;101409.19;10244948;28;20501;-67
2021/04/10 19:28:07;;;;;;;8.68;2.60;;;;;;;9.16;47.71;101401.78;10240092;28;20127;-67
2021/04/10 19:33:04;;;;;;;7.03;2.03;;;;;;;9.23;47.81;101396.78;10232561;28;20068;-67
2021/04/10 19:38:00;;;;;;;8.15;1.92;;;;;;;9.01;47.24;101400.84;10223186;28;20045;-67
2021/04/10 19:42:57;;;;;;;6.35;2.40;;;;;;;9.12;47.68;101387.09;10208983;28;20064;-67
2021/04/10 19:47:53;;;;;;;9.95;2.40;;;;;;;8.69;48.00;101392.50;10239258;28;20049;-67
2021/04/10 19:52:49;;;;;;;11.52;2.03;;;;;;;8.39;48.67;101389.72;10222985;28;20077;-67
2021/04/10 19:57:45;;;;;;;5.90;2.13;;;;;;;8.60;48.93;101370.50;10203953;28;20073;-66
2021/04/10 20:02:41;;;;;;;6.43;2.10;;;;;;;8.56;48.31;101373.00;10194046;28;20083;-66
2021/04/10 20:07:38;;;;;;;7.25;1.70;;;;;;;8.67;48.43;101361.97;10203682;28;20072;-66
2021/04/10 20:12:34;;;;;;;7.38;2.17;;;;;;;8.64;47.92;101366.91;10233861;28;20585;-67
2021/04/10 20:17:30;;;;;;;7.65;2.10;;;;;;;8.50;47.82;101354.25;10217125;28;20535;-67
2021/04/10 20:22:26;;;;;;;6.15;1.40;;;;;;;8.55;47.52;101349.56;10230083;28;20107;-67
2021/04/10 20:27:22;;;;;;;8.93;1.70;;;;;;;8.39;48.50;101345.31;10250634;28;20055;-66
2021/04/10 20:32:18;;;;;;;7.28;1.52;;;;;;;8.51;48.13;101336.78;10256590;28;20135;-66
2021/04/10 20:37:14;;;;;;;5.65;1.63;;;;;;;8.17;49.65;101338.44;10240111;28;20049;-66
2021/04/10 20:42:11;;;;;;;5.35;1.73;;;;;;;8.11;51.87;101336.88;10236994;28;20041;-67
2021/04/10 20:47:15;;;;;;;7.93;2.10;;;;;;;7.91;52.20;101331.59;10236827;28;20634;-67
2021/04/10 20:52:12;;;;;;;5.93;2.10;;;;;;;8.07;52.35;101332.28;10253686;28;20053;-66
2021/04/10 20:57:10;;;;;;;8.35;1.83;;;;;;;7.95;53.52;101324.47;10252670;28;20064;-66
2021/04/10 21:02:10;;;;;;;7.28;2.08;;;;;;;8.01;53.62;101317.91;10242017;28;20045;-66
2021/04/10 21:07:07;;;;;;;5.50;2.03;;;;;;;7.89;53.77;101314.72;10247531;28;20049;-66
2021/04/10 21:12:04;;;;;;;5.25;1.70;;;;;;;7.74;55.33;101313.75;10243292;28;20076;-66
2021/04/10 21:17:00;;;;;;;6.18;1.45;;;;;;;7.58;57.65;101304.06;10263959;28;20541;-66
2021/04/10 21:21:58;;;;;;;8.95;1.95;;;;;;;7.50;57.13;101297.34;10250140;28;20045;-67
2021/04/10 21:26:58;;;;;;;5.45;1.83;;;;;;;7.52;58.66;101294.31;10215177;28;20396;-67
2021/04/10 21:31:54;;;;;;;6.78;1.92;;;;;;;7.36;59.28;101283.53;10216427;28;20041;-66
2021/04/10 21:36:51;;;;;;;5.97;1.83;;;;;;;7.30;59.44;101281.94;10230489;28;20098;-67
2021/04/10 21:41:47;;;;;;;7.05;1.48;;;;;;;7.18;61.11;101267.88;10253957;28;20086;-67
2021/04/10 21:46:43;;;;;;;7.95;3.25;;;;;;;7.11;60.37;101267.38;10245406;28;20159;-67
2021/04/10 21:51:42;;;;;;;10.98;2.03;;;;;;;6.96;63.65;101257.38;10206531;28;20045;-67
2021/04/10 21:56:39;;;;;;;8.00;1.63;;;;;;;6.70;61.88;101240.41;10206282;28;20471;-68
2021/04/10 22:01:35;;;;;;;10.50;2.08;;;;;;;6.72;63.87;101243.66;10211044;28;20104;-68
2021/04/10 22:06:34;;;;;;;10.25;1.60;;;;;;;6.87;60.75;101238.16;10205283;28;20059;-68
2021/04/10 22:11:30;;;;;;;9.07;2.03;;;;;;;6.77;62.74;101235.47;10215892;28;20436;-66
2021/04/10 22:16:29;;;;;;;6.28;1.67;;;;;;;6.38;63.96;101228.03;10209537;28;20135;-68
2021/04/10 22:21:29;;;;;;;6.95;1.75;;;;;;;6.61;62.79;101225.78;10238781;28;20048;-68
2021/04/10 22:26:26;;;;;;;5.22;1.88;;;;;;;6.64;62.75;101211.66;10246282;28;20041;-66
2021/04/10 22:31:23;;;;;;;6.35;1.50;;;;;;;6.55;64.34;101194.31;10250549;28;20567;-65
2021/04/10 22:36:20;;;;;;;9.98;1.50;;;;;;;6.54;63.51;101182.59;10238373;28;20103;-66
2021/04/10 22:41:16;;;;;;;8.02;1.98;;;;;;;6.55;66.29;101172.56;10246233;28;20856;-66
2021/04/10 22:46:12;;;;;;;7.18;1.40;;;;;;;5.88;67.86;101180.91;10241846;28;20100;-66
2021/04/10 22:51:08;;;;;;;6.55;1.90;;;;;;;6.09;67.92;101166.22;10245929;28;20103;-65
2021/04/10 22:56:12;;;;;;;5.43;1.58;;;;;;;6.28;66.07;101147.41;10253152;28;20041;-66